createdAt,value
2023-03-10T00:01:24.213Z,96010.63
2023-03-10T00:04:00.010Z,96001.78
2023-03-10T00:06:37.517Z,96000.59
2023-03-10T00:09:12.204Z,95994.78
2023-03-10T00:11:46.338Z,95995.19
2023-03-10T00:14:19.470Z,95992.56
2023-03-10T00:16:53.847Z,95996.03
2023-03-10T00:19:27.049Z,95988.66
2023-03-10T00:22:00.365Z,95986.41
2023-03-10T00:24:33.666Z,95975.47
2023-03-10T00:27:06.859Z,95974.63
2023-03-10T00:29:39.929Z,95971.16
2023-03-10T00:32:14.320Z,95966.06
2023-03-10T00:34:47.345Z,95957.63
2023-03-10T00:37:20.607Z,95949.34
2023-03-10T00:39:54.122Z,95944.38
2023-03-10T00:42:27.155Z,95945.59
2023-03-10T00:45:00.182Z,95937.09
2023-03-10T00:47:34.950Z,95930.28
2023-03-10T00:50:09.498Z,95931.94
2023-03-10T00:52:42.578Z,95913.34
2023-03-10T00:55:15.601Z,95924.41
2023-03-10T00:57:48.620Z,95910.94
2023-03-10T01:00:24.466Z,95900.75
2023-03-10T01:02:59.662Z,95897.38
2023-03-10T01:05:33.441Z,95887.09
2023-03-10T01:08:06.939Z,95872.41
2023-03-10T01:10:40.138Z,95875.00
2023-03-10T01:13:14.520Z,95869.19
2023-03-10T01:15:48.820Z,95864.91
2023-03-10T01:18:23.611Z,95857.28
2023-03-10T01:20:56.628Z,95860.00
2023-03-10T01:23:30.079Z,95850.84
2023-03-10T01:26:03.142Z,95841.44
2023-03-10T01:28:36.266Z,95848.31
2023-03-10T01:31:10.427Z,95832.91
2023-03-10T01:33:45.733Z,95835.88
2023-03-10T01:36:22.756Z,95828.22
2023-03-10T01:38:57.764Z,95825.44
2023-03-10T01:41:30.930Z,95827.13
2023-03-10T01:44:04.938Z,95821.81
2023-03-10T01:46:50.922Z,95819.94
2023-03-10T01:49:39.822Z,95812.69
2023-03-10T01:52:17.617Z,95817.00
2023-03-10T01:54:55.318Z,95809.31
2023-03-10T01:57:33.190Z,95811.47
2023-03-10T02:00:12.234Z,95802.06
2023-03-10T02:02:54.237Z,95811.88
2023-03-10T02:05:30.481Z,95805.22
2023-03-10T02:08:04.480Z,95801.38
2023-03-10T02:10:38.158Z,95798.66
2023-03-10T02:13:11.272Z,95798.66
2023-03-10T02:15:44.600Z,95803.66
2023-03-10T02:18:19.259Z,95799.97
2023-03-10T02:21:01.470Z,95811.88
2023-03-10T02:23:45.067Z,95801.09
2023-03-10T02:26:36.597Z,95807.75
2023-03-10T02:29:16.989Z,95803.56
2023-03-10T02:31:50.674Z,95798.34
2023-03-10T02:34:25.143Z,95789.19
2023-03-10T02:36:58.292Z,95792.25
2023-03-10T02:39:31.373Z,95787.16
2023-03-10T02:42:05.762Z,95800.09
2023-03-10T02:44:41.001Z,95783.56
2023-03-10T02:47:14.451Z,95775.66
2023-03-10T02:49:47.988Z,95775.97
2023-03-10T02:52:29.541Z,95779.59
2023-03-10T02:55:02.704Z,95778.41
2023-03-10T02:57:35.722Z,95773.38
2023-03-10T03:00:12.831Z,95773.72
2023-03-10T03:02:45.873Z,95773.00
2023-03-10T03:05:19.145Z,95777.38
2023-03-10T03:07:52.279Z,95775.00
2023-03-10T03:10:25.422Z,95776.13
2023-03-10T03:12:58.554Z,95778.69
2023-03-10T03:15:33.318Z,95779.53
2023-03-10T03:18:06.973Z,95762.44
2023-03-10T03:20:41.360Z,95773.75
2023-03-10T03:23:14.686Z,95758.50
2023-03-10T03:25:47.729Z,95756.97
2023-03-10T03:28:21.414Z,95754.34
2023-03-10T03:30:55.973Z,95755.88
2023-03-10T03:33:29.092Z,95754.09
2023-03-10T03:36:02.305Z,95762.81
2023-03-10T03:38:35.372Z,95758.63
2023-03-10T03:41:09.612Z,95762.09
2023-03-10T03:43:42.926Z,95762.09
2023-03-10T03:46:17.439Z,95767.31
2023-03-10T03:48:50.535Z,95764.59
2023-03-10T03:51:23.561Z,95763.78
2023-03-10T03:53:56.634Z,95757.78
2023-03-10T03:56:29.628Z,95760.38
2023-03-10T03:59:02.724Z,95757.66
2023-03-10T04:01:37.195Z,95756.13
2023-03-10T04:04:10.385Z,95749.97
2023-03-10T04:06:43.708Z,95750.22
2023-03-10T04:09:18.134Z,95750.03
2023-03-10T04:11:51.216Z,95750.09
2023-03-10T04:14:24.295Z,95737.44
2023-03-10T04:16:58.683Z,95748.34
2023-03-10T04:19:32.302Z,95745.59
2023-03-10T04:22:05.414Z,95755.09
2023-03-10T04:24:39.590Z,95750.28
2023-03-10T04:27:12.641Z,95727.22
2023-03-10T04:29:45.638Z,95734.66
2023-03-10T04:32:20.142Z,95741.44
2023-03-10T04:34:53.569Z,95729.34
2023-03-10T04:37:30.187Z,95737.97
2023-03-10T04:40:08.215Z,95736.13
2023-03-10T04:42:41.343Z,95720.66
2023-03-10T04:45:15.130Z,95733.66
2023-03-10T04:47:49.508Z,95728.00
2023-03-10T04:50:22.681Z,95724.47
2023-03-10T04:52:56.059Z,95719.28
2023-03-10T04:55:29.159Z,95712.22
2023-03-10T04:58:02.459Z,95718.50
2023-03-10T05:00:35.581Z,95729.31
2023-03-10T05:03:10.063Z,95726.63
2023-03-10T05:05:44.050Z,95719.59
2023-03-10T05:08:17.138Z,95716.94
2023-03-10T05:10:50.242Z,95713.56
2023-03-10T05:13:23.276Z,95712.09
2023-03-10T05:15:56.364Z,95706.97
2023-03-10T05:18:30.851Z,95711.22
2023-03-10T05:21:03.909Z,95710.94
2023-03-10T05:23:37.102Z,95716.41
2023-03-10T05:26:12.395Z,95705.22
2023-03-10T05:28:45.415Z,95677.50
2023-03-10T05:31:26.559Z,95678.44
2023-03-10T05:34:01.165Z,95678.91
2023-03-10T05:36:34.286Z,95686.63
2023-03-10T05:39:09.535Z,95682.28
2023-03-10T05:41:42.603Z,95673.94
2023-03-10T05:44:15.652Z,95672.28
2023-03-10T05:46:48.806Z,95672.34
2023-03-10T05:49:23.332Z,95667.25
2023-03-10T05:51:56.380Z,95668.03
2023-03-10T05:54:29.398Z,95673.13
2023-03-10T05:57:02.450Z,95667.09
2023-03-10T05:59:35.561Z,95657.03
2023-03-10T06:02:08.708Z,95664.13
2023-03-10T06:04:43.075Z,95653.84
2023-03-10T06:07:16.144Z,95648.94
2023-03-10T06:09:49.211Z,95653.13
2023-03-10T06:12:22.366Z,95658.16
2023-03-10T06:14:55.505Z,95651.47
2023-03-10T06:17:28.536Z,95656.84
2023-03-10T06:20:03.018Z,95637.94
2023-03-10T06:22:36.096Z,95648.25
2023-03-10T06:25:10.645Z,95637.91
2023-03-10T06:27:43.720Z,95648.56
2023-03-10T06:30:17.693Z,95656.22
2023-03-10T06:32:50.894Z,95657.69
2023-03-10T06:35:25.355Z,95651.72
2023-03-10T06:37:58.430Z,95641.16
2023-03-10T06:40:31.633Z,95635.97
2023-03-10T06:43:04.714Z,95645.53
2023-03-10T06:45:37.994Z,95640.38
2023-03-10T06:48:11.877Z,95625.84
2023-03-10T06:50:48.964Z,95630.81
2023-03-10T06:53:23.054Z,95628.94
2023-03-10T06:56:01.222Z,95632.31
2023-03-10T06:58:36.296Z,95628.09
2023-03-10T07:01:10.167Z,95623.69
2023-03-10T07:03:43.872Z,95619.63
2023-03-10T07:06:18.396Z,95617.06
2023-03-10T07:08:51.845Z,95610.38
2023-03-10T07:11:26.705Z,95602.09
2023-03-10T07:13:59.951Z,95597.53
2023-03-10T07:16:33.050Z,95611.09
2023-03-10T07:19:06.061Z,95616.88
2023-03-10T07:21:40.664Z,95614.91
2023-03-10T07:24:13.748Z,95608.28
2023-03-10T07:26:46.997Z,95606.75
2023-03-10T07:29:20.032Z,95598.38
2023-03-10T07:31:53.160Z,95603.91
2023-03-10T07:34:26.186Z,95599.16
2023-03-10T07:37:00.633Z,95600.00
2023-03-10T07:39:33.674Z,95589.75
2023-03-10T07:42:08.022Z,95590.41
2023-03-10T07:44:41.077Z,95599.66
2023-03-10T07:47:14.201Z,95608.19
2023-03-10T07:49:47.410Z,95617.41
2023-03-10T07:52:21.877Z,95617.28
2023-03-10T07:54:54.863Z,95618.84
2023-03-10T07:57:29.800Z,95609.44
2023-03-10T08:00:03.016Z,95613.56
2023-03-10T08:02:36.808Z,95605.19
2023-03-10T08:05:11.770Z,95608.56
2023-03-10T08:07:46.480Z,95613.72
2023-03-10T08:10:19.929Z,95615.44
2023-03-10T08:12:55.091Z,95607.66
2023-03-10T08:15:28.847Z,95613.56
2023-03-10T08:18:05.126Z,95613.53
2023-03-10T08:20:40.726Z,95605.81
2023-03-10T08:23:15.823Z,95610.16
2023-03-10T08:25:49.475Z,95612.75
2023-03-10T08:28:23.074Z,95606.91
2023-03-10T08:31:04.166Z,95603.75
2023-03-10T08:33:38.807Z,95603.78
2023-03-10T08:36:15.668Z,95606.28
2023-03-10T08:38:51.564Z,95601.09
2023-03-10T08:41:27.562Z,95608.78
2023-03-10T08:44:01.761Z,95612.19
2023-03-10T08:46:35.789Z,95636.06
2023-03-10T08:49:09.223Z,95642.63
2023-03-10T08:51:43.207Z,95638.06
2023-03-10T08:54:20.883Z,95647.97
2023-03-10T08:56:54.319Z,95638.34
2023-03-10T08:59:27.648Z,95650.41
2023-03-10T09:02:00.755Z,95642.25
2023-03-10T09:04:33.862Z,95659.41
2023-03-10T09:07:06.991Z,95661.72
2023-03-10T09:09:41.480Z,95692.13
2023-03-10T09:12:14.528Z,95687.94
2023-03-10T09:14:48.424Z,95687.25
2023-03-10T09:17:21.498Z,95698.31
2023-03-10T09:19:54.551Z,95703.38
2023-03-10T09:22:27.625Z,95709.03
2023-03-10T09:25:02.044Z,95729.41
2023-03-10T09:27:35.152Z,95704.84
2023-03-10T09:30:09.527Z,95705.91
2023-03-10T09:32:44.854Z,95710.88
2023-03-10T09:35:18.223Z,95718.72
2023-03-10T09:37:51.402Z,95713.66
2023-03-10T09:40:26.462Z,95702.72
2023-03-10T09:43:02.430Z,95702.09
2023-03-10T09:45:44.905Z,95690.75
2023-03-10T09:48:37.790Z,95694.81
2023-03-10T09:51:18.002Z,95693.88
2023-03-10T09:53:59.929Z,95685.75
2023-03-10T09:56:37.158Z,95684.50
2023-03-10T09:59:16.586Z,95674.56
2023-03-10T10:01:52.377Z,95677.44
2023-03-10T10:04:35.075Z,95663.56
2023-03-10T10:07:17.381Z,95674.09
2023-03-10T10:09:56.507Z,95663.19
2023-03-10T10:12:30.947Z,95657.41
2023-03-10T10:15:17.880Z,95673.59
2023-03-10T10:18:24.961Z,95663.22
2023-03-10T10:21:01.750Z,95667.38
2023-03-10T10:23:43.639Z,95670.50
2023-03-10T10:26:20.301Z,95668.78
2023-03-10T10:28:57.692Z,95673.00
2023-03-10T10:31:34.973Z,95675.72
2023-03-10T10:34:20.819Z,95680.81
2023-03-10T10:36:57.102Z,95682.59
2023-03-10T10:39:34.527Z,95683.34
2023-03-10T10:42:20.384Z,95668.47
2023-03-10T10:44:57.247Z,95677.72
2023-03-10T10:47:32.917Z,95666.81
2023-03-10T10:50:21.063Z,95669.38
2023-03-10T10:53:21.108Z,95664.16
2023-03-10T10:56:04.643Z,95659.75
2023-03-10T10:58:40.785Z,95655.75
2023-03-10T11:01:17.735Z,95645.41
2023-03-10T11:04:06.545Z,95645.56
2023-03-10T11:06:39.667Z,95651.47
2023-03-10T11:09:18.604Z,95646.06
2023-03-10T11:12:01.572Z,95650.38
2023-03-10T11:14:49.403Z,95646.97
2023-03-10T11:17:29.742Z,95637.78
2023-03-10T11:20:15.393Z,95647.13
2023-03-10T11:22:55.982Z,95653.03
2023-03-10T11:25:37.859Z,95649.72
2023-03-10T11:28:42.055Z,95662.53
2023-03-10T11:31:33.351Z,95656.59
2023-03-10T11:34:22.386Z,95655.78
2023-03-10T11:37:06.786Z,95654.22
2023-03-10T11:39:49.087Z,95655.94
2023-03-10T11:42:32.459Z,95661.94
2023-03-10T11:45:21.577Z,95672.25
2023-03-10T11:48:07.831Z,95661.28
2023-03-10T11:50:50.880Z,95662.97
2023-03-10T11:53:35.675Z,95665.41
2023-03-10T11:56:12.723Z,95666.88
2023-03-10T11:58:51.234Z,95666.81
2023-03-10T12:01:31.722Z,95671.03
2023-03-10T12:04:14.871Z,95668.28
2023-03-10T12:06:55.170Z,95658.84
2023-03-10T12:09:40.053Z,95665.50
2023-03-10T12:12:16.231Z,95666.25
2023-03-10T12:14:50.201Z,95660.59
2023-03-10T12:17:23.509Z,95662.31
2023-03-10T12:20:25.684Z,95661.47
2023-03-10T12:23:02.733Z,95660.72
2023-03-10T12:25:49.517Z,95659.66
2023-03-10T12:28:28.612Z,95656.13
2023-03-10T12:31:04.355Z,95660.28
2023-03-10T12:33:53.418Z,95656.88
2023-03-10T12:36:37.188Z,95661.81
2023-03-10T12:39:32.599Z,95665.25
2023-03-10T12:42:14.668Z,95664.44
2023-03-10T12:44:55.729Z,95668.53
2023-03-10T12:47:49.633Z,95658.44
2023-03-10T12:50:46.501Z,95671.16
2023-03-10T12:53:32.858Z,95665.03
2023-03-10T12:56:36.687Z,95657.69
2023-03-10T12:59:17.294Z,95654.38
2023-03-10T13:01:55.896Z,95652.88
2023-03-10T13:04:29.663Z,95657.94
2023-03-10T13:07:04.405Z,95652.03
2023-03-10T13:09:43.722Z,95648.75
2023-03-10T13:12:22.879Z,95653.88
2023-03-10T13:14:59.884Z,95657.41
2023-03-10T13:17:34.242Z,95652.28
2023-03-10T13:20:17.329Z,95665.22
2023-03-10T13:22:55.563Z,95654.13
2023-03-10T13:25:28.594Z,95651.38
2023-03-10T13:28:11.956Z,95652.09
2023-03-10T13:30:46.815Z,95658.75
2023-03-10T13:33:27.398Z,95655.88
2023-03-10T13:36:00.971Z,95667.78
2023-03-10T13:38:34.049Z,95663.69
2023-03-10T13:41:13.195Z,95669.66
2023-03-10T13:43:49.396Z,95671.41
2023-03-10T13:46:27.770Z,95678.19
2023-03-10T13:49:06.241Z,95689.31
2023-03-10T13:51:39.754Z,95685.81
2023-03-10T13:54:21.002Z,95693.88
2023-03-10T13:56:57.434Z,95689.25
2023-03-10T13:59:33.386Z,95690.00
2023-03-10T14:02:15.318Z,95697.72
2023-03-10T14:04:51.379Z,95713.03
2023-03-10T14:07:27.497Z,95703.28
2023-03-10T14:10:19.542Z,95724.34
2023-03-10T14:12:55.177Z,95699.88
2023-03-10T14:15:38.552Z,95701.59
2023-03-10T14:18:19.947Z,95693.72
2023-03-10T14:20:52.993Z,95691.13
2023-03-10T14:23:29.246Z,95703.16
2023-03-10T14:26:02.283Z,95703.09
2023-03-10T14:28:35.354Z,95704.72
2023-03-10T14:31:21.942Z,95717.25
2023-03-10T14:33:54.993Z,95733.25
2023-03-10T14:36:28.031Z,95733.31
2023-03-10T14:39:01.017Z,95752.06
2023-03-10T14:41:34.388Z,95740.13
2023-03-10T14:44:07.669Z,95720.72
2023-03-10T14:46:42.288Z,95736.03
2023-03-10T14:49:17.464Z,95752.25
2023-03-10T14:51:50.531Z,95741.22
2023-03-10T14:54:25.899Z,95720.13
2023-03-10T14:56:59.930Z,95738.03
2023-03-10T14:59:32.990Z,95755.13
2023-03-10T15:02:22.651Z,95755.38
2023-03-10T15:04:55.772Z,95761.19
2023-03-10T15:07:28.834Z,95770.41
2023-03-10T15:10:11.636Z,95776.78
2023-03-10T15:12:45.479Z,95781.25
2023-03-10T15:15:21.989Z,95775.91
2023-03-10T15:17:56.627Z,95774.44
2023-03-10T15:20:29.709Z,95804.13
2023-03-10T15:23:02.761Z,95800.44
2023-03-10T15:25:35.919Z,95812.78
2023-03-10T15:28:08.950Z,95814.41
2023-03-10T15:30:42.711Z,95830.28
2023-03-10T15:33:17.442Z,95825.81
2023-03-10T15:35:50.872Z,95839.22
2023-03-10T15:38:23.981Z,95838.88
2023-03-10T15:40:57.256Z,95830.47
2023-03-10T15:43:30.374Z,95867.53
2023-03-10T15:46:07.836Z,95883.72
2023-03-10T15:48:42.294Z,95877.69
2023-03-10T15:51:18.028Z,95887.72
2023-03-10T15:53:51.415Z,95885.38
2023-03-10T15:56:24.489Z,95891.25
2023-03-10T15:58:58.045Z,95905.38
2023-03-10T16:01:31.306Z,95917.03
2023-03-10T16:04:06.053Z,95925.31
2023-03-10T16:06:39.129Z,95928.91
2023-03-10T16:09:12.302Z,95921.41
2023-03-10T16:11:45.489Z,95939.13
2023-03-10T16:14:18.506Z,95917.03
2023-03-10T16:16:51.627Z,95913.84
2023-03-10T16:19:26.749Z,95899.13
2023-03-10T16:21:59.777Z,95910.31
2023-03-10T16:24:33.068Z,95924.56
2023-03-10T16:27:06.488Z,95904.00
2023-03-10T16:29:40.890Z,95914.28
2023-03-10T16:32:14.969Z,95922.06
2023-03-10T16:34:49.491Z,95918.63
2023-03-10T16:37:22.527Z,95921.00
2023-03-10T16:39:56.389Z,95934.44
2023-03-10T16:42:35.607Z,95918.53
2023-03-10T16:45:09.710Z,95920.59
2023-03-10T16:47:43.966Z,95935.38
2023-03-10T16:50:18.981Z,95945.81
2023-03-10T16:52:56.575Z,95956.00
2023-03-10T16:55:29.687Z,95973.19
2023-03-10T16:58:02.808Z,95976.66
2023-03-10T17:00:38.193Z,95978.16
2023-03-10T17:03:11.221Z,95992.72
2023-03-10T17:05:45.625Z,95991.66
2023-03-10T17:08:18.646Z,95998.63
2023-03-10T17:10:51.681Z,96006.66
2023-03-10T17:13:24.750Z,96010.69
2023-03-10T17:15:57.894Z,96017.72
2023-03-10T17:18:30.927Z,96014.47
2023-03-10T17:21:14.695Z,96009.81
2023-03-10T17:23:48.549Z,96019.50
2023-03-10T17:26:22.442Z,96039.13
2023-03-10T17:28:55.706Z,96046.59
2023-03-10T17:31:30.371Z,96047.09
2023-03-10T17:34:07.215Z,96052.84
2023-03-10T17:36:42.134Z,96028.59
2023-03-10T17:39:19.825Z,96015.50
2023-03-10T17:41:54.419Z,96015.00
2023-03-10T17:44:27.696Z,96029.84
2023-03-10T17:47:00.809Z,96009.47
2023-03-10T17:49:34.117Z,96000.38
2023-03-10T17:52:08.779Z,96017.16
2023-03-10T17:54:41.911Z,96035.31
2023-03-10T17:57:15.238Z,96042.75
2023-03-10T17:59:48.272Z,96058.91
2023-03-10T18:02:21.572Z,96050.94
2023-03-10T18:04:54.595Z,96052.41
2023-03-10T18:07:30.228Z,96054.34
2023-03-10T18:10:03.915Z,96059.22
2023-03-10T18:12:37.007Z,96062.69
2023-03-10T18:15:11.658Z,96052.66
2023-03-10T18:17:44.904Z,96041.50
2023-03-10T18:20:18.099Z,96056.19
2023-03-10T18:22:52.604Z,96045.16
2023-03-10T18:25:25.639Z,96057.63
2023-03-10T18:27:58.662Z,96063.38
2023-03-10T18:30:31.708Z,96054.13
2023-03-10T18:33:04.897Z,96051.53
2023-03-10T18:35:39.326Z,96049.63
2023-03-10T18:38:14.961Z,96038.41
2023-03-10T18:40:48.099Z,96024.72
2023-03-10T18:43:21.133Z,96046.59
2023-03-10T18:45:54.119Z,96035.41
2023-03-10T18:48:28.640Z,96028.84
2023-03-10T18:51:02.153Z,96045.78
2023-03-10T18:53:36.561Z,96036.59
2023-03-10T18:56:10.833Z,96026.75
2023-03-10T18:58:43.842Z,96032.13
2023-03-10T19:01:17.171Z,96041.63
2023-03-10T19:03:50.505Z,96037.47
2023-03-10T19:06:23.602Z,96069.50
2023-03-10T19:08:57.996Z,96091.28
2023-03-10T19:11:35.390Z,96077.22
2023-03-10T19:14:08.748Z,96102.72
2023-03-10T19:16:42.748Z,96088.16
2023-03-10T19:19:15.728Z,96085.47
2023-03-10T19:21:48.780Z,96083.03
2023-03-10T19:24:23.253Z,96079.13
2023-03-10T19:26:56.655Z,96084.84
2023-03-10T19:29:29.647Z,96067.75
2023-03-10T19:32:03.006Z,96070.59
2023-03-10T19:34:36.506Z,96094.19
2023-03-10T19:37:09.560Z,96091.44
2023-03-10T19:39:44.338Z,96094.69
2023-03-10T19:42:17.458Z,96085.78
2023-03-10T19:44:50.452Z,96072.03
2023-03-10T19:47:23.485Z,96091.44
2023-03-10T19:49:56.716Z,96092.44
2023-03-10T19:52:29.878Z,96102.88
2023-03-10T19:55:04.485Z,96115.34
2023-03-10T19:57:37.700Z,96090.31
2023-03-10T20:00:14.836Z,96146.50
2023-03-10T20:02:48.031Z,96131.13
2023-03-10T20:05:21.604Z,96128.28
2023-03-10T20:07:54.723Z,96141.91
2023-03-10T20:10:29.185Z,96131.00
2023-03-10T20:13:02.367Z,96177.78
2023-03-10T20:15:35.428Z,96174.72
2023-03-10T20:18:08.554Z,96163.16
2023-03-10T20:20:42.323Z,96188.78
2023-03-10T20:23:16.171Z,96196.03
2023-03-10T20:25:50.771Z,96199.53
2023-03-10T20:28:23.877Z,96186.34
2023-03-10T20:30:56.926Z,96209.41
2023-03-10T20:33:30.369Z,96210.78
2023-03-10T20:36:03.444Z,96226.75
2023-03-10T20:38:36.538Z,96236.72
2023-03-10T20:41:12.575Z,96266.47
2023-03-10T20:43:46.234Z,96296.53
2023-03-10T20:46:19.757Z,96300.38
2023-03-10T20:48:52.965Z,96286.03
2023-03-10T20:51:26.010Z,96318.13
2023-03-10T20:53:59.092Z,96326.00
2023-03-10T20:56:34.108Z,96326.41
2023-03-10T20:59:07.174Z,96337.31
2023-03-10T21:01:42.422Z,96337.16
2023-03-10T21:04:15.605Z,96366.84
2023-03-10T21:06:48.666Z,96392.03
2023-03-10T21:09:21.650Z,96387.28
2023-03-10T21:11:56.095Z,96416.66
2023-03-10T21:14:29.160Z,96408.97
2023-03-10T21:17:03.080Z,96458.25
2023-03-10T21:19:36.312Z,96464.53
2023-03-10T21:22:09.648Z,96469.44
2023-03-10T21:24:42.690Z,96482.88
2023-03-10T21:27:17.292Z,96495.19
2023-03-10T21:29:50.304Z,96516.25
2023-03-10T21:32:25.864Z,96516.97
2023-03-10T21:34:59.809Z,96527.00
2023-03-10T21:37:33.164Z,96532.16
2023-03-10T21:40:09.425Z,96532.34
2023-03-10T21:42:43.820Z,96535.06
2023-03-10T21:45:20.462Z,96543.00
2023-03-10T21:47:53.832Z,96552.50
2023-03-10T21:50:27.042Z,96545.41
2023-03-10T21:53:00.760Z,96562.44
2023-03-10T21:55:34.461Z,96547.00
2023-03-10T21:58:08.898Z,96573.38
2023-03-10T22:00:42.704Z,96606.69
2023-03-10T22:03:15.793Z,96612.28
2023-03-10T22:05:50.486Z,96602.75
2023-03-10T22:08:23.554Z,96592.38
2023-03-10T22:10:56.586Z,96619.78
2023-03-10T22:13:30.990Z,96628.47
2023-03-10T22:16:05.783Z,96621.84
2023-03-10T22:18:39.136Z,96627.56
2023-03-10T22:21:12.729Z,96618.47
2023-03-10T22:23:46.010Z,96625.34
2023-03-10T22:26:19.069Z,96618.84
2023-03-10T22:28:53.464Z,96607.16
2023-03-10T22:31:26.536Z,96630.53
2023-03-10T22:33:59.822Z,96630.13
2023-03-10T22:36:32.849Z,96635.59
2023-03-10T22:39:05.885Z,96640.31
2023-03-10T22:41:39.018Z,96647.00
2023-03-10T22:44:13.393Z,96660.25
2023-03-10T22:46:47.161Z,96649.50
2023-03-10T22:49:20.286Z,96644.88
2023-03-10T22:51:53.320Z,96662.06
2023-03-10T22:54:26.789Z,96675.03
2023-03-10T22:57:00.058Z,96683.03
2023-03-10T22:59:34.421Z,96694.59
2023-03-10T23:02:07.494Z,96701.16
2023-03-10T23:04:40.573Z,96709.41
2023-03-10T23:07:13.638Z,96712.59
2023-03-10T23:09:46.664Z,96716.50
2023-03-10T23:12:19.692Z,96712.53
2023-03-10T23:14:54.122Z,96710.97
2023-03-10T23:17:27.565Z,96721.75
2023-03-10T23:20:00.636Z,96728.41
2023-03-10T23:22:33.979Z,96733.28
2023-03-10T23:25:08.045Z,96733.09
2023-03-10T23:27:41.374Z,96747.66
2023-03-10T23:30:17.171Z,96746.78
2023-03-10T23:32:51.926Z,96746.13
2023-03-10T23:35:28.547Z,96745.69
2023-03-10T23:38:03.073Z,96735.38
2023-03-10T23:40:37.700Z,96744.81
2023-03-10T23:43:10.752Z,96743.78
2023-03-10T23:45:45.611Z,96747.09
2023-03-10T23:48:20.373Z,96722.78
2023-03-10T23:50:53.418Z,96715.28
2023-03-10T23:53:28.511Z,96727.78
2023-03-10T23:56:01.567Z,96731.13
2023-03-10T23:58:34.734Z,96728.59
